createdAt,value
2022-10-28T03:59:24.598Z,63.44
2022-10-28T04:00:24.555Z,62.57
2022-10-28T04:01:24.665Z,63.44
2022-10-28T04:02:24.785Z,63.34
2022-10-28T04:03:24.577Z,62.57
2022-10-28T04:04:28.309Z,62.96
2022-10-28T04:05:24.630Z,63.34
2022-10-28T04:06:24.605Z,62.57
2022-10-28T04:07:24.564Z,63.44
2022-10-28T04:08:24.582Z,63.15
2022-10-28T04:09:22.730Z,63.34
2022-10-28T04:10:22.659Z,63.34
2022-10-28T04:11:22.678Z,63.34
2022-10-28T04:12:22.729Z,63.44
2022-10-28T04:13:24.653Z,63.06
2022-10-28T04:14:22.673Z,63.34
2022-10-28T04:15:22.670Z,63.34
2022-10-28T04:16:24.651Z,63.34
2022-10-28T04:17:22.633Z,63.82
2022-10-28T04:18:22.732Z,63.44
2022-10-28T04:19:22.615Z,64.02
2022-10-28T04:20:24.598Z,63.54
2022-10-28T04:21:22.652Z,63.54
2022-10-28T04:22:22.634Z,63.73
2022-10-28T04:23:22.610Z,63.64
2022-10-28T04:24:23.605Z,63.34
2022-10-28T04:25:22.627Z,63.64
2022-10-28T04:26:24.132Z,63.67
2022-10-28T04:27:23.589Z,64.15
2022-10-28T04:28:24.166Z,63.76
2022-10-28T04:29:24.146Z,63.76
2022-10-28T04:30:23.590Z,63.95
2022-10-28T04:31:24.157Z,63.67
2022-10-28T04:32:22.578Z,63.76
2022-10-28T04:33:24.129Z,63.76
2022-10-28T04:34:23.612Z,63.57
2022-10-28T04:35:22.566Z,63.76
2022-10-28T04:36:24.166Z,63.76
2022-10-28T04:37:22.557Z,63.76
2022-10-28T04:39:23.618Z,63.57
2022-10-28T04:40:22.588Z,63.67
2022-10-28T04:41:24.087Z,63.76
2022-10-28T04:42:22.549Z,63.76
2022-10-28T04:43:24.111Z,63.76
2022-10-28T04:44:22.550Z,63.95
2022-10-28T04:45:23.546Z,63.76
2022-10-28T04:46:22.532Z,64.25
2022-10-28T04:47:22.541Z,63.76
2022-10-28T04:48:24.110Z,63.76
2022-10-28T04:49:22.526Z,63.76
2022-10-28T04:50:24.144Z,63.47
2022-10-28T04:51:23.569Z,63.28
2022-10-28T04:52:24.190Z,63.67
2022-10-28T04:53:24.149Z,63.85
2022-10-28T04:54:24.135Z,63.70
2022-10-28T04:55:24.105Z,63.38
2022-10-28T04:56:24.093Z,63.85
2022-10-28T04:57:24.126Z,64.25
2022-10-28T04:58:24.146Z,63.57
2022-10-28T04:59:24.162Z,63.76
2022-10-28T05:00:24.204Z,63.57
2022-10-28T05:01:24.283Z,63.57
2022-10-28T05:02:22.620Z,63.47
2022-10-28T05:03:24.140Z,63.57
2022-10-28T05:04:24.185Z,63.57
2022-10-28T05:05:24.116Z,63.47
2022-10-28T05:06:24.148Z,63.79
2022-10-28T05:07:24.178Z,64.18
2022-10-28T05:08:25.202Z,63.41
2022-10-28T05:09:22.465Z,64.28
2022-10-28T05:10:22.469Z,64.15
2022-10-28T05:11:24.168Z,63.41
2022-10-28T05:12:22.477Z,63.50
2022-10-28T05:13:24.162Z,63.31
2022-10-28T05:14:22.430Z,64.18
2022-10-28T05:15:22.436Z,63.60
2022-10-28T05:16:24.210Z,63.50
2022-10-28T05:17:22.444Z,63.31
2022-10-28T05:18:22.455Z,63.50
2022-10-28T05:19:22.466Z,63.41
2022-10-28T05:20:23.659Z,64.18
2022-10-28T05:21:22.434Z,63.41
2022-10-28T05:22:22.414Z,63.31
2022-10-28T05:23:27.160Z,63.50
2022-10-28T05:24:24.173Z,63.41
2022-10-28T05:25:24.165Z,63.50
2022-10-28T05:26:24.157Z,63.98
2022-10-28T05:27:24.178Z,63.31
2022-10-28T05:28:24.215Z,63.21
2022-10-28T05:29:24.134Z,64.08
2022-10-28T05:30:24.145Z,63.41
2022-10-28T05:31:24.133Z,63.31
2022-10-28T05:32:24.145Z,63.41
2022-10-28T05:33:24.160Z,63.50
2022-10-28T05:34:24.263Z,63.98
2022-10-28T05:35:24.361Z,63.41
2022-10-28T05:36:24.173Z,63.50
2022-10-28T05:37:24.220Z,63.41
2022-10-28T05:38:24.275Z,63.98
2022-10-28T05:39:24.244Z,63.41
2022-10-28T05:40:24.149Z,63.50
2022-10-28T05:41:24.219Z,64.08
2022-10-28T05:42:24.219Z,63.31
2022-10-28T05:43:24.164Z,64.08
2022-10-28T05:44:24.186Z,64.08
2022-10-28T05:45:24.242Z,63.41
2022-10-28T05:46:24.217Z,63.50
2022-10-28T05:47:23.403Z,63.41
2022-10-28T05:48:22.373Z,64.08
2022-10-28T05:49:24.250Z,64.08
2022-10-28T05:50:22.383Z,63.21
2022-10-28T05:51:22.350Z,63.02
2022-10-28T05:52:22.341Z,63.98
2022-10-28T05:53:24.207Z,63.02
2022-10-28T05:54:22.339Z,63.50
2022-10-28T05:55:23.360Z,63.89
2022-10-28T05:56:22.409Z,63.12
2022-10-28T05:57:24.202Z,63.98
2022-10-28T05:58:22.311Z,63.12
2022-10-28T05:59:24.238Z,63.89
2022-10-28T06:00:22.311Z,63.89
2022-10-28T06:01:24.283Z,63.50
2022-10-28T06:02:24.196Z,63.21
2022-10-28T06:03:24.923Z,63.89
2022-10-28T06:04:24.289Z,63.02
2022-10-28T06:05:23.321Z,64.08
2022-10-28T06:06:24.246Z,63.12
2022-10-28T06:07:24.266Z,63.60
2022-10-28T06:08:24.224Z,63.12
2022-10-28T06:09:24.201Z,63.12
2022-10-28T06:10:24.316Z,63.12
2022-10-28T06:11:22.750Z,63.12
2022-10-28T06:12:22.779Z,63.12
2022-10-28T06:13:22.693Z,63.02
2022-10-28T06:14:22.737Z,63.12
2022-10-28T06:15:22.711Z,63.98
2022-10-28T06:16:20.757Z,63.02
2022-10-28T06:17:22.721Z,63.21
2022-10-28T06:18:22.669Z,63.02
2022-10-28T06:19:22.711Z,63.50
2022-10-28T06:20:22.713Z,63.21
2022-10-28T06:21:22.741Z,63.50
2022-10-28T06:22:22.730Z,63.41
2022-10-28T06:23:22.766Z,63.70
2022-10-28T06:24:22.776Z,63.41
2022-10-28T06:25:20.712Z,63.41
2022-10-28T06:26:20.779Z,63.79
2022-10-28T06:27:22.720Z,63.70
2022-10-28T06:28:21.765Z,63.41
2022-10-28T06:29:22.232Z,63.79
2022-10-28T06:30:22.713Z,63.41
2022-10-28T06:31:22.245Z,63.41
2022-10-28T06:32:22.230Z,63.31
2022-10-28T06:33:22.222Z,63.21
2022-10-28T06:34:22.300Z,63.79
2022-10-28T06:35:20.711Z,63.41
2022-10-28T06:36:22.190Z,63.41
2022-10-28T06:37:22.174Z,63.50
2022-10-28T06:38:22.176Z,63.41
2022-10-28T06:39:22.353Z,63.41
2022-10-28T06:40:22.255Z,63.31
2022-10-28T06:41:22.194Z,63.21
2022-10-28T06:42:22.373Z,63.21
2022-10-28T06:43:22.326Z,63.21
2022-10-28T06:44:22.319Z,63.21
2022-10-28T06:45:22.317Z,63.41
2022-10-28T06:46:22.255Z,63.31
2022-10-28T06:47:23.805Z,63.41
2022-10-28T06:48:23.777Z,63.41
2022-10-28T06:49:23.872Z,63.50
2022-10-28T06:50:23.756Z,63.31
2022-10-28T06:51:23.769Z,63.50
2022-10-28T06:52:23.770Z,63.60
2022-10-28T06:53:23.752Z,63.60
2022-10-28T06:54:23.854Z,63.41
2022-10-28T06:55:23.801Z,63.50
2022-10-28T06:56:23.802Z,63.21
2022-10-28T06:57:25.653Z,63.31
2022-10-28T06:58:23.852Z,63.63
2022-10-28T06:59:23.804Z,63.21
2022-10-28T07:00:23.933Z,63.12
2022-10-28T07:01:23.851Z,63.21
2022-10-28T07:02:23.963Z,63.24
2022-10-28T07:03:23.886Z,63.63
2022-10-28T07:04:23.775Z,63.21
2022-10-28T07:05:23.859Z,63.21
2022-10-28T07:06:23.796Z,63.60
2022-10-28T07:07:23.873Z,63.15
2022-10-28T07:08:23.804Z,63.70
2022-10-28T07:09:23.846Z,63.24
2022-10-28T07:10:23.846Z,63.34
2022-10-28T07:11:23.797Z,63.24
2022-10-28T07:12:23.830Z,63.34
2022-10-28T07:13:23.794Z,63.34
2022-10-28T07:14:23.837Z,63.82
2022-10-28T07:15:23.848Z,63.34
2022-10-28T07:16:23.877Z,63.73
2022-10-28T07:17:23.865Z,63.34
2022-10-28T07:18:23.847Z,63.44
2022-10-28T07:19:23.878Z,63.73
2022-10-28T07:20:23.881Z,63.44
2022-10-28T07:21:23.866Z,63.24
2022-10-28T07:22:25.489Z,63.34
2022-10-28T07:23:23.893Z,63.44
2022-10-28T07:24:22.148Z,63.34
2022-10-28T07:25:23.885Z,63.54
2022-10-28T07:26:22.181Z,63.54
2022-10-28T07:27:22.138Z,63.82
2022-10-28T07:28:23.850Z,63.92
2022-10-28T07:29:22.139Z,63.92
2022-10-28T07:30:23.988Z,63.73
2022-10-28T07:31:22.136Z,63.06
2022-10-28T07:32:23.837Z,63.82
2022-10-28T07:33:22.098Z,62.96
2022-10-28T07:34:26.937Z,63.54
2022-10-28T07:35:23.874Z,62.66
2022-10-28T07:36:22.147Z,63.24
2022-10-28T07:37:23.915Z,63.54
2022-10-28T07:38:23.115Z,62.66
2022-10-28T07:39:23.867Z,62.86
2022-10-28T07:40:24.011Z,62.96
2022-10-28T07:41:23.945Z,63.06
2022-10-28T07:42:23.903Z,63.73
2022-10-28T07:43:23.869Z,62.96
2022-10-28T07:44:23.876Z,62.86
2022-10-28T07:45:23.893Z,63.34
2022-10-28T07:46:23.890Z,63.34
2022-10-28T07:47:22.070Z,63.34
2022-10-28T07:48:22.090Z,62.66
2022-10-28T07:49:22.055Z,62.96
2022-10-28T07:50:23.838Z,63.44
2022-10-28T07:51:22.009Z,63.34
2022-10-28T07:52:22.042Z,62.86
2022-10-28T07:53:26.349Z,62.70
2022-10-28T07:54:23.014Z,62.76
2022-10-28T07:55:22.066Z,63.37
2022-10-28T07:56:22.999Z,63.37
2022-10-28T07:57:23.890Z,62.99
2022-10-28T07:58:22.039Z,62.79
2022-10-28T07:59:26.558Z,63.47
2022-10-28T08:00:22.026Z,62.60
2022-10-28T08:01:23.966Z,62.79
2022-10-28T08:02:23.824Z,63.09
2022-10-28T08:03:27.807Z,62.70
2022-10-28T08:04:23.850Z,62.89
2022-10-28T08:05:23.846Z,62.79
2022-10-28T08:06:23.815Z,62.70
2022-10-28T08:07:23.851Z,62.79
2022-10-28T08:08:23.874Z,62.89
2022-10-28T08:09:23.868Z,62.70
2022-10-28T08:10:23.803Z,62.60
2022-10-28T08:11:23.846Z,63.09
2022-10-28T08:12:23.782Z,62.60
2022-10-28T08:13:23.824Z,62.92
2022-10-28T08:14:23.808Z,63.12
2022-10-28T08:15:23.859Z,62.73
2022-10-28T08:16:21.930Z,62.92
2022-10-28T08:17:21.952Z,62.25
2022-10-28T08:18:21.934Z,63.02
2022-10-28T08:19:23.823Z,62.73
2022-10-28T08:20:23.312Z,62.92
2022-10-28T08:21:21.987Z,62.25
2022-10-28T08:22:21.926Z,62.25
2022-10-28T08:23:23.817Z,62.73
2022-10-28T08:24:21.877Z,62.54
2022-10-28T08:25:21.919Z,62.73
2022-10-28T08:26:21.956Z,62.44
2022-10-28T08:27:21.893Z,62.25
2022-10-28T08:28:23.838Z,61.96
2022-10-28T08:29:24.201Z,62.63
2022-10-28T08:30:21.946Z,61.96
2022-10-28T08:31:21.895Z,62.44
2022-10-28T08:32:23.820Z,62.28
2022-10-28T08:33:23.904Z,62.08
2022-10-28T08:34:23.796Z,62.76
2022-10-28T08:35:23.837Z,62.28
2022-10-28T08:36:23.876Z,62.28
2022-10-28T08:37:24.000Z,62.66
2022-10-28T08:38:23.835Z,62.47
2022-10-28T08:39:23.796Z,62.08
2022-10-28T08:40:24.811Z,61.99
2022-10-28T08:41:23.811Z,62.47
2022-10-28T08:42:23.919Z,62.66
2022-10-28T08:43:39.966Z,62.28
2022-10-28T08:44:23.892Z,62.66
2022-10-28T08:45:23.894Z,62.60
2022-10-28T08:46:23.861Z,62.70
2022-10-28T08:47:23.854Z,62.31
2022-10-28T08:48:23.830Z,62.50
2022-10-28T08:49:23.903Z,61.92
2022-10-28T08:50:23.873Z,62.60
2022-10-28T08:51:21.871Z,62.70
2022-10-28T08:52:23.867Z,62.89
2022-10-28T08:53:22.877Z,62.60
2022-10-28T08:54:21.864Z,61.92
2022-10-28T08:55:23.320Z,62.60
2022-10-28T08:56:21.910Z,62.31
2022-10-28T08:57:21.880Z,62.50
2022-10-28T08:58:21.863Z,62.73
2022-10-28T08:59:23.371Z,62.15
2022-10-28T09:00:21.860Z,62.24
2022-10-28T09:01:22.101Z,62.34
2022-10-28T09:02:23.386Z,62.24
2022-10-28T09:03:21.838Z,62.34
2022-10-28T09:04:23.356Z,62.44
2022-10-28T09:05:22.882Z,62.34
2022-10-28T09:06:22.861Z,62.34
2022-10-28T09:07:23.357Z,62.27
2022-10-28T09:08:23.385Z,62.05
2022-10-28T09:09:21.831Z,62.66
2022-10-28T09:10:23.320Z,62.37
2022-10-28T09:11:26.390Z,62.47
2022-10-28T09:12:23.331Z,62.44
2022-10-28T09:13:23.325Z,62.47
2022-10-28T09:14:23.356Z,62.56
2022-10-28T09:15:23.341Z,62.37
2022-10-28T09:16:23.342Z,62.37
2022-10-28T09:17:23.337Z,62.56
2022-10-28T09:18:23.341Z,62.66
2022-10-28T09:19:23.341Z,62.37
2022-10-28T09:20:23.329Z,62.56
2022-10-28T09:21:23.349Z,62.47
2022-10-28T09:22:21.806Z,62.08
2022-10-28T09:23:22.792Z,62.50
2022-10-28T09:24:21.817Z,62.69
2022-10-28T09:25:22.852Z,62.56
2022-10-28T09:26:22.845Z,62.59
2022-10-28T09:27:21.802Z,61.63
2022-10-28T09:28:23.353Z,61.63
2022-10-28T09:29:21.792Z,62.30
2022-10-28T09:30:21.811Z,62.21
2022-10-28T09:31:22.851Z,61.72
2022-10-28T09:32:21.792Z,61.92
2022-10-28T09:33:23.359Z,62.01
2022-10-28T09:34:21.788Z,62.11
2022-10-28T09:35:23.366Z,61.92
2022-10-28T09:36:23.361Z,61.82
2022-10-28T09:37:21.793Z,62.11
2022-10-28T09:38:23.354Z,61.63
2022-10-28T09:39:26.825Z,61.66
2022-10-28T09:40:23.363Z,61.76
2022-10-28T09:41:23.367Z,61.95
2022-10-28T09:42:23.363Z,61.76
2022-10-28T09:43:23.399Z,61.66
2022-10-28T09:44:23.394Z,62.04
2022-10-28T09:45:23.388Z,61.76
2022-10-28T09:46:23.384Z,61.95
2022-10-28T09:47:23.370Z,61.95
2022-10-28T09:48:23.393Z,61.85
2022-10-28T09:49:23.372Z,61.85
2022-10-28T09:50:23.422Z,61.85
2022-10-28T09:51:21.812Z,62.04
2022-10-28T09:52:23.511Z,61.98
2022-10-28T09:53:21.790Z,61.98
2022-10-28T09:54:21.816Z,61.98
2022-10-28T09:55:21.800Z,62.17
2022-10-28T09:56:21.817Z,61.79
2022-10-28T09:57:21.868Z,61.59
2022-10-28T09:58:23.579Z,61.88
2022-10-28T09:59:21.798Z,61.98
2022-10-28T10:00:21.811Z,61.69
2022-10-28T10:01:23.483Z,62.17
2022-10-28T10:02:21.900Z,62.10
2022-10-28T10:13:33.769Z,61.24
2022-10-28T10:14:33.164Z,61.65
2022-10-28T10:15:33.770Z,61.46
2022-10-28T10:16:33.758Z,61.36
2022-10-28T10:17:33.792Z,61.17
2022-10-28T10:18:33.777Z,61.36
2022-10-28T10:19:33.744Z,61.55
2022-10-28T10:20:34.166Z,61.55
2022-10-28T10:21:33.340Z,61.46
2022-10-28T10:22:33.751Z,61.26
2022-10-28T10:23:33.817Z,61.46
2022-10-28T10:24:33.792Z,61.55
2022-10-28T10:25:33.769Z,61.46
2022-10-28T10:26:33.800Z,60.78
2022-10-28T10:27:32.146Z,61.26
2022-10-28T10:28:32.157Z,60.78
2022-10-28T10:29:32.172Z,61.10
2022-10-28T10:30:33.168Z,61.10
2022-10-28T10:31:33.759Z,61.10
2022-10-28T10:32:33.772Z,61.00
2022-10-28T10:33:33.792Z,61.00
2022-10-28T10:34:33.817Z,61.19
2022-10-28T10:35:33.772Z,61.19
2022-10-28T10:36:32.181Z,61.10
2022-10-28T10:37:33.782Z,61.10
2022-10-28T10:38:33.755Z,61.00
2022-10-28T10:39:33.776Z,60.91
2022-10-28T10:40:33.783Z,60.91
2022-10-28T10:41:33.762Z,60.91
2022-10-28T10:42:36.677Z,60.81
2022-10-28T10:43:33.775Z,60.61
2022-10-28T10:44:33.772Z,60.42
2022-10-28T10:45:33.164Z,60.84
2022-10-28T10:46:33.765Z,60.61
2022-10-28T10:47:33.768Z,60.81
2022-10-28T10:48:33.784Z,60.74
2022-10-28T10:49:33.769Z,60.55
2022-10-28T10:50:33.774Z,60.74
2022-10-28T10:51:36.250Z,60.55
2022-10-28T10:52:32.170Z,60.35
2022-10-28T10:53:33.828Z,60.16
2022-10-28T10:54:32.177Z,60.64
2022-10-28T10:55:32.179Z,60.55
2022-10-28T10:56:33.786Z,60.45
2022-10-28T10:57:32.187Z,60.64
2022-10-28T10:58:32.182Z,60.55
2022-10-28T10:59:32.206Z,60.16
2022-10-28T11:00:32.203Z,60.25
2022-10-28T11:01:33.927Z,60.25
2022-10-28T11:02:32.498Z,60.25
2022-10-28T11:03:33.797Z,60.25
2022-10-28T11:04:33.779Z,60.45
2022-10-28T11:05:38.124Z,60.35
2022-10-28T11:06:33.784Z,60.25
2022-10-28T11:07:33.847Z,60.25
2022-10-28T11:08:33.785Z,60.25
2022-10-28T11:09:33.797Z,60.16
2022-10-28T11:10:33.802Z,60.45
2022-10-28T11:11:33.794Z,60.35
2022-10-28T11:12:32.240Z,59.87
2022-10-28T11:13:33.820Z,59.97
2022-10-28T11:14:33.799Z,59.77
2022-10-28T11:15:32.197Z,59.87
2022-10-28T11:16:33.808Z,59.87
2022-10-28T11:17:33.810Z,59.77
2022-10-28T11:18:33.830Z,59.77
2022-10-28T11:19:33.807Z,59.58
2022-10-28T11:20:33.792Z,59.87
2022-10-28T11:21:33.812Z,59.77
2022-10-28T11:22:33.806Z,59.87
2022-10-28T11:23:33.825Z,59.87
2022-10-28T11:24:33.815Z,59.97
2022-10-28T11:25:32.216Z,59.97
2022-10-28T11:26:32.209Z,59.87
2022-10-28T11:27:32.226Z,60.16
2022-10-28T11:28:33.841Z,59.87
2022-10-28T11:29:32.242Z,60.16
2022-10-28T11:30:32.218Z,60.16
2022-10-28T11:31:32.232Z,60.16
2022-10-28T11:32:32.234Z,59.58
2022-10-28T11:33:34.424Z,60.16
2022-10-28T11:34:33.330Z,59.87
2022-10-28T11:35:33.836Z,59.58
2022-10-28T11:36:33.226Z,59.19
2022-10-28T11:37:32.221Z,59.61
2022-10-28T11:38:33.850Z,59.51
2022-10-28T11:39:33.223Z,59.61
2022-10-28T11:40:32.231Z,59.61
2022-10-28T11:41:32.237Z,59.70
2022-10-28T11:42:33.870Z,59.41
2022-10-28T11:43:32.229Z,59.80
2022-10-28T11:44:32.280Z,59.70
2022-10-28T11:45:32.267Z,59.80
2022-10-28T11:46:32.255Z,59.31
2022-10-28T11:47:33.866Z,59.41
2022-10-28T11:48:33.353Z,59.61
2022-10-28T11:49:33.856Z,59.70
2022-10-28T11:50:33.830Z,59.31
2022-10-28T11:51:33.864Z,59.51
2022-10-28T11:52:33.833Z,59.15
2022-10-28T11:53:33.862Z,59.64
2022-10-28T11:54:33.839Z,59.44
2022-10-28T11:55:33.835Z,59.92
2022-10-28T11:56:33.851Z,59.05
2022-10-28T11:57:33.843Z,59.28
2022-10-28T11:58:33.877Z,58.89
2022-10-28T11:59:33.869Z,59.18
2022-10-28T12:00:32.279Z,59.28
2022-10-28T12:01:34.019Z,58.98
2022-10-28T12:02:32.337Z,58.98
2022-10-28T12:03:32.269Z,59.28
2022-10-28T12:04:33.886Z,59.08
2022-10-28T12:05:33.265Z,58.89
2022-10-28T12:06:33.854Z,59.08
2022-10-28T12:07:33.872Z,58.59
2022-10-28T12:08:33.922Z,58.79
2022-10-28T12:09:33.909Z,58.53
2022-10-28T12:10:33.886Z,58.72
2022-10-28T12:11:33.905Z,58.33
2022-10-28T12:12:32.301Z,58.62
2022-10-28T12:13:33.854Z,58.82
2022-10-28T12:14:33.899Z,58.53
2022-10-28T12:15:33.851Z,58.62
2022-10-28T12:16:33.878Z,58.72
2022-10-28T12:17:32.283Z,58.72
2022-10-28T12:18:33.907Z,58.72
2022-10-28T12:19:33.898Z,58.72
2022-10-28T12:20:33.931Z,58.82
2022-10-28T12:22:33.864Z,58.82
2022-10-28T12:23:33.867Z,58.72
2022-10-28T12:24:33.959Z,58.59
2022-10-28T12:25:33.905Z,58.69
2022-10-28T12:26:33.911Z,58.69
2022-10-28T12:27:33.890Z,58.79
2022-10-28T12:28:33.908Z,58.79
2022-10-28T12:29:32.362Z,58.69
2022-10-28T12:30:33.890Z,58.40
2022-10-28T12:31:33.886Z,58.59
2022-10-28T12:32:32.331Z,58.59
2022-10-28T12:33:32.318Z,58.21
2022-10-28T12:34:32.392Z,58.67
2022-10-28T12:35:33.912Z,58.67
2022-10-28T12:36:33.399Z,58.57
2022-10-28T12:37:32.329Z,58.37
2022-10-28T12:38:33.902Z,58.37
2022-10-28T12:39:33.875Z,58.57
2022-10-28T12:40:33.943Z,58.57
2022-10-28T12:41:33.962Z,58.37
2022-10-28T12:42:33.882Z,58.67
2022-10-28T12:43:33.883Z,58.67
2022-10-28T12:44:32.353Z,58.86
2022-10-28T12:45:33.884Z,58.57
2022-10-28T12:46:33.885Z,58.47
2022-10-28T12:47:34.997Z,58.47
2022-10-28T12:48:33.905Z,58.76
2022-10-28T12:49:33.889Z,58.57
2022-10-28T12:50:34.009Z,58.47
2022-10-28T12:51:33.909Z,58.67
2022-10-28T12:52:33.904Z,58.64
2022-10-28T12:53:33.909Z,58.54
2022-10-28T12:54:33.945Z,58.67
2022-10-28T12:55:33.911Z,58.57
2022-10-28T12:56:34.017Z,58.76
2022-10-28T12:57:33.904Z,58.47
2022-10-28T12:58:33.930Z,58.67
2022-10-28T12:59:32.364Z,58.57
2022-10-28T13:00:33.900Z,58.73
2022-10-28T13:01:32.469Z,58.47
2022-10-28T13:02:33.996Z,58.73
2022-10-28T13:03:32.358Z,58.76
2022-10-28T13:04:32.339Z,58.73
2022-10-28T13:05:35.460Z,58.64
2022-10-28T13:06:32.405Z,58.54
2022-10-28T13:07:32.346Z,58.25
2022-10-28T13:08:33.964Z,58.73
2022-10-28T13:09:37.854Z,58.54
2022-10-28T13:10:33.383Z,58.54
2022-10-28T13:11:33.991Z,58.83
2022-10-28T13:12:33.930Z,58.64
2022-10-28T13:13:34.013Z,58.93
2022-10-28T13:14:32.350Z,58.73
2022-10-28T13:15:32.350Z,58.93
2022-10-28T13:16:32.350Z,59.03
2022-10-28T13:17:33.944Z,58.64
2022-10-28T13:18:32.358Z,58.41
2022-10-28T13:19:33.928Z,58.64
2022-10-28T13:20:32.355Z,59.03
2022-10-28T13:21:33.934Z,58.54
2022-10-28T13:22:32.358Z,58.70
2022-10-28T13:23:33.939Z,58.80
2022-10-28T13:24:33.965Z,58.80
2022-10-28T13:25:33.928Z,59.00
2022-10-28T13:26:34.005Z,58.80
2022-10-28T13:27:33.946Z,58.90
2022-10-28T13:28:32.356Z,59.00
2022-10-28T13:29:33.931Z,58.70
2022-10-28T13:30:32.382Z,58.80
2022-10-28T13:31:33.947Z,58.54
2022-10-28T13:32:37.331Z,58.73
2022-10-28T13:33:32.366Z,58.54
2022-10-28T13:34:33.955Z,58.64
2022-10-28T13:35:33.379Z,58.64
2022-10-28T13:36:33.365Z,58.73
2022-10-28T13:37:33.975Z,58.64
2022-10-28T13:38:33.465Z,58.54
2022-10-28T13:39:32.377Z,58.54
2022-10-28T13:40:32.386Z,58.54
2022-10-28T13:41:33.948Z,58.34
2022-10-28T13:42:33.945Z,58.25
2022-10-28T13:43:33.959Z,58.64
2022-10-28T13:44:33.942Z,58.93
2022-10-28T13:45:33.945Z,58.73
2022-10-28T13:46:33.377Z,58.64
2022-10-28T13:47:33.956Z,59.00
2022-10-28T13:48:33.967Z,58.73
2022-10-28T13:49:33.951Z,58.61
2022-10-28T13:50:33.952Z,59.03
2022-10-28T13:51:33.945Z,58.41
2022-10-28T13:52:33.970Z,58.41
2022-10-28T13:53:33.986Z,58.41
2022-10-28T13:54:34.001Z,58.41
2022-10-28T13:55:36.208Z,58.93
2022-10-28T13:56:34.024Z,58.41
2022-10-28T13:57:33.985Z,59.19
2022-10-28T13:58:33.973Z,58.61
2022-10-28T13:59:33.474Z,58.70
2022-10-28T14:00:32.391Z,58.44
2022-10-28T14:01:32.486Z,58.64
2022-10-28T14:02:35.495Z,58.64
2022-10-28T14:03:32.630Z,58.44
2022-10-28T14:04:34.003Z,58.64
2022-10-28T14:05:32.402Z,58.34
2022-10-28T14:06:32.446Z,58.54
2022-10-28T14:07:32.383Z,58.34
2022-10-28T14:08:32.393Z,58.64
2022-10-28T14:09:32.383Z,58.64
2022-10-28T14:10:33.488Z,58.61
2022-10-28T14:11:32.418Z,58.70
2022-10-28T14:12:32.403Z,58.80
2022-10-28T14:13:33.996Z,58.80
2022-10-28T14:14:33.976Z,58.90
2022-10-28T14:15:33.998Z,59.00
2022-10-28T14:16:32.398Z,58.90
2022-10-28T14:17:33.976Z,59.09
2022-10-28T14:18:49.468Z,59.26
2022-10-28T14:19:33.504Z,59.00
2022-10-28T14:20:34.007Z,59.45
2022-10-28T14:21:33.984Z,59.55
2022-10-28T14:22:34.068Z,59.74
2022-10-28T14:23:33.991Z,59.06
2022-10-28T14:24:33.988Z,59.36
2022-10-28T14:25:33.994Z,59.55
2022-10-28T14:26:34.031Z,59.16
2022-10-28T14:27:34.012Z,59.23
2022-10-28T14:28:33.988Z,59.23
2022-10-28T14:29:33.996Z,59.52
2022-10-28T14:30:33.994Z,59.42
2022-10-28T14:31:33.512Z,59.61
2022-10-28T14:32:34.004Z,59.71
2022-10-28T14:33:32.389Z,59.81
2022-10-28T14:34:32.397Z,59.61
2022-10-28T14:35:32.389Z,59.42
2022-10-28T14:36:32.403Z,59.78
2022-10-28T14:37:34.008Z,59.61
2022-10-28T14:38:32.407Z,59.69
2022-10-28T14:39:32.396Z,59.88
2022-10-28T14:40:32.392Z,60.07
2022-10-28T14:41:32.529Z,59.97
2022-10-28T14:42:32.395Z,59.97
2022-10-28T14:43:34.023Z,59.88
2022-10-28T14:44:33.390Z,59.97
2022-10-28T14:45:34.020Z,59.39
2022-10-28T14:46:33.393Z,59.49
2022-10-28T14:47:34.019Z,59.56
2022-10-28T14:48:32.390Z,60.04
2022-10-28T14:49:34.023Z,59.94
2022-10-28T14:50:32.390Z,60.04
2022-10-28T14:51:34.394Z,60.24
2022-10-28T14:52:34.029Z,60.33
2022-10-28T14:53:33.393Z,60.14
2022-10-28T14:54:36.556Z,60.14
2022-10-28T14:55:33.400Z,60.14
2022-10-28T14:56:34.031Z,60.24
2022-10-28T14:57:34.434Z,60.14
2022-10-28T14:58:34.020Z,60.24
2022-10-28T14:59:34.064Z,60.14
2022-10-28T15:00:34.017Z,59.94
2022-10-28T15:01:34.180Z,60.14
2022-10-28T15:02:34.160Z,60.24
2022-10-28T15:03:34.021Z,60.24
2022-10-28T15:04:34.020Z,60.14
2022-10-28T15:05:34.057Z,60.43
2022-10-28T15:06:32.378Z,60.01
2022-10-28T15:07:37.918Z,60.21
2022-10-28T15:08:34.023Z,60.50
2022-10-28T15:09:34.036Z,60.69
2022-10-28T15:10:35.048Z,60.30
2022-10-28T15:11:32.382Z,60.59
2022-10-28T15:12:34.047Z,60.50
2022-10-28T15:13:33.378Z,60.50
2022-10-28T15:14:32.383Z,60.11
2022-10-28T15:15:34.067Z,60.59
2022-10-28T15:16:34.034Z,60.40
2022-10-28T15:17:34.026Z,60.59
2022-10-28T15:18:34.035Z,60.30
2022-10-28T15:19:34.052Z,60.59
2022-10-28T15:20:34.049Z,60.50
2022-10-28T15:21:34.041Z,60.40
2022-10-28T15:22:34.038Z,60.69
2022-10-28T15:24:34.036Z,60.69
2022-10-28T15:25:34.046Z,60.57
2022-10-28T15:26:34.082Z,60.40
2022-10-28T15:27:34.062Z,60.47
2022-10-28T15:28:34.056Z,60.17
2022-10-28T15:29:32.356Z,60.27
2022-10-28T15:30:33.563Z,60.57
2022-10-28T15:31:32.373Z,60.75
2022-10-28T15:32:32.361Z,60.66
2022-10-28T15:33:32.355Z,60.95
2022-10-28T15:34:32.359Z,60.57
2022-10-28T15:35:34.056Z,60.66
2022-10-28T15:36:32.411Z,60.85
2022-10-28T15:37:32.360Z,60.85
2022-10-28T15:38:34.066Z,60.95
2022-10-28T15:39:32.349Z,60.85
2022-10-28T15:40:32.360Z,61.05
2022-10-28T15:41:33.567Z,60.85
2022-10-28T15:42:32.425Z,61.05
2022-10-28T15:43:32.345Z,60.85
2022-10-28T15:44:32.345Z,60.82
2022-10-28T15:45:38.308Z,60.95
2022-10-28T15:46:33.582Z,61.02
2022-10-28T15:47:34.073Z,60.72
2022-10-28T15:48:34.063Z,61.11
2022-10-28T15:49:34.086Z,61.21
2022-10-28T15:50:34.092Z,61.40
2022-10-28T15:51:34.095Z,61.40
2022-10-28T15:52:34.092Z,61.40
2022-10-28T15:53:34.069Z,61.30
2022-10-28T15:54:34.077Z,61.40
2022-10-28T15:56:34.076Z,60.82
2022-10-28T15:57:34.066Z,61.40
2022-10-28T15:58:34.072Z,60.89
2022-10-28T15:59:34.093Z,61.11
2022-10-28T16:00:34.082Z,61.11
2022-10-28T16:12:46.486Z,61.47
2022-10-28T16:13:44.831Z,61.08
2022-10-28T16:14:44.824Z,61.37
2022-10-28T16:15:45.850Z,61.15
2022-10-28T16:16:46.437Z,61.18
2022-10-28T16:17:46.471Z,60.76
2022-10-28T16:18:46.429Z,60.86
2022-10-28T16:19:46.447Z,61.25
2022-10-28T16:20:46.516Z,61.15
2022-10-28T16:21:46.438Z,61.15
2022-10-28T16:22:46.423Z,61.54
2022-10-28T16:23:46.422Z,61.63
2022-10-28T16:24:46.441Z,61.05
2022-10-28T16:25:44.792Z,61.34
2022-10-28T16:26:46.442Z,61.44
2022-10-28T16:27:44.784Z,61.63
2022-10-28T16:28:45.496Z,61.15
2022-10-28T16:29:46.444Z,61.92
2022-10-28T16:30:44.780Z,61.63
2022-10-28T16:31:44.778Z,61.73
2022-10-28T16:32:44.767Z,61.83
2022-10-28T16:33:46.457Z,61.44
2022-10-28T16:34:46.434Z,61.63
2022-10-28T16:35:46.437Z,61.44
2022-10-28T16:36:44.760Z,61.44
2022-10-28T16:37:49.370Z,61.83
2022-10-28T16:38:46.434Z,61.73
2022-10-28T16:39:46.431Z,61.73
2022-10-28T16:40:51.593Z,61.70
2022-10-28T16:41:44.762Z,61.51
2022-10-28T16:42:46.453Z,61.70
2022-10-28T16:43:46.472Z,61.70
2022-10-28T16:44:46.460Z,61.89
2022-10-28T16:45:46.449Z,61.89
2022-10-28T16:46:46.463Z,61.80
2022-10-28T16:47:46.446Z,61.60
2022-10-28T16:48:46.455Z,61.51
2022-10-28T16:49:46.466Z,61.60
2022-10-28T16:50:45.960Z,62.08
2022-10-28T16:51:44.741Z,61.51
2022-10-28T16:52:46.463Z,61.89
2022-10-28T16:53:44.731Z,61.89
2022-10-28T16:54:44.722Z,61.51
2022-10-28T16:55:44.736Z,61.70
2022-10-28T16:56:44.766Z,61.60
2022-10-28T16:57:46.473Z,61.89
2022-10-28T16:58:44.742Z,61.99
2022-10-28T16:59:44.722Z,61.80
2022-10-28T17:00:44.711Z,62.08
2022-10-28T17:01:46.589Z,61.80
2022-10-28T17:02:44.750Z,61.70
2022-10-28T17:03:46.490Z,61.80
2022-10-28T17:04:46.463Z,61.80
2022-10-28T17:05:46.474Z,62.18
2022-10-28T17:06:46.462Z,61.80
2022-10-28T17:07:46.491Z,61.70
2022-10-28T17:09:02.435Z,61.60
2022-10-28T17:09:46.469Z,62.57
2022-10-28T17:10:46.472Z,62.57
2022-10-28T17:11:46.481Z,62.47
2022-10-28T17:12:46.481Z,61.70
2022-10-28T17:13:46.472Z,61.89
2022-10-28T17:14:46.496Z,62.57
2022-10-28T17:15:45.692Z,62.37
2022-10-28T17:16:46.490Z,61.99